TimeEDT,TemperatureF,Dew PointF,Humidity,Sea Level PressureIn,VisibilityMPH,Wind Direction,Wind SpeedMPH,Gust SpeedMPH,PrecipitationIn,Events,Conditions,WindDirDegrees,DateUTC
12:51 AM,50.0,15.1,25,29.96,10.0,SE,9.2,-,N/A,,Scattered Clouds,140,2013-04-07 04:51:00
1:51 AM,51.1,16.0,25,29.93,10.0,SE,12.7,-,N/A,,Mostly Cloudy,140,2013-04-07 05:51:00
2:51 AM,52.0,19.9,28,29.90,10.0,South,12.7,20.7,N/A,,Overcast,170,2013-04-07 06:51:00
3:51 AM,53.1,24.1,32,29.88,10.0,South,13.8,21.9,N/A,,Overcast,170,2013-04-07 07:51:00
4:51 AM,53.1,-9999,N/A,29.88,10.0,South,10.4,20.7,N/A,,Mostly Cloudy,180,2013-04-07 08:51:00
5:51 AM,54.0,28.9,38,29.86,10.0,South,11.5,-,N/A,,Clear,170,2013-04-07 09:51:00
6:51 AM,55.0,32.0,42,29.85,10.0,South,11.5,20.7,N/A,,Clear,180,2013-04-07 10:51:00
7:03 AM,55.0,32.0,42,29.85,10.0,South,11.5,20.7,N/A,,Partly Cloudy,180,2013-04-07 11:03:00
7:51 AM,55.9,32.0,40,29.84,10.0,South,12.7,23.0,N/A,,Partly Cloudy,190,2013-04-07 11:51:00
8:00 AM,55.4,32.0,41,29.83,10.0,South,12.7,23.0,N/A,,Mostly Cloudy,190,2013-04-07 12:00:00
8:51 AM,57.9,33.1,39,29.83,10.0,SSW,13.8,28.8,N/A,,Overcast,200,2013-04-07 12:51:00
9:51 AM,62.1,35.1,37,29.82,10.0,SSW,19.6,29.9,N/A,,Overcast,210,2013-04-07 13:51:00
10:51 AM,64.9,37.9,37,29.83,10.0,SW,23.0,33.4,N/A,,Overcast,220,2013-04-07 14:51:00
11:51 AM,64.0,39.0,40,29.84,10.0,SW,21.9,38.0,N/A,,Mostly Cloudy,230,2013-04-07 15:51:00
12:51 PM,69.1,39.9,35,29.83,10.0,SW,23.0,33.4,N/A,,Mostly Cloudy,230,2013-04-07 16:51:00
1:51 PM,69.1,39.9,35,29.84,10.0,WSW,15.0,28.8,N/A,,Mostly Cloudy,240,2013-04-07 17:51:00
2:51 PM,71.1,37.9,30,29.83,10.0,WSW,17.3,29.9,N/A,,Mostly Cloudy,250,2013-04-07 18:51:00
3:51 PM,69.1,37.9,32,29.84,10.0,WSW,18.4,28.8,N/A,,Mostly Cloudy,250,2013-04-07 19:51:00
4:14 PM,66.2,42.8,43,29.86,10.0,NW,13.8,-,N/A,,Mostly Cloudy,320,2013-04-07 20:14:00
4:51 PM,63.0,43.0,48,29.87,10.0,NW,11.5,-,N/A,,Mostly Cloudy,320,2013-04-07 20:51:00
5:51 PM,64.0,42.1,45,29.90,10.0,WNW,15.0,20.7,N/A,,Mostly Cloudy,300,2013-04-07 21:51:00
6:51 PM,59.0,41.0,51,29.94,10.0,NW,15.0,-,N/A,,Mostly Cloudy,320,2013-04-07 22:51:00
7:51 PM,52.0,39.0,61,29.96,10.0,NNW,10.4,-,N/A,,Mostly Cloudy,330,2013-04-07 23:51:00
8:51 PM,48.9,37.9,66,30.00,10.0,NW,9.2,-,N/A,,Mostly Cloudy,320,2013-04-08 00:51:00
9:51 PM,46.9,36.0,66,30.01,10.0,North,5.8,-,N/A,,Mostly Cloudy,350,2013-04-08 01:51:00
10:51 PM,44.1,35.1,71,30.02,10.0,North,5.8,-,N/A,,Overcast,10,2013-04-08 02:51:00
11:51 PM,43.0,35.1,74,30.03,10.0,NNE,6.9,-,N/A,,Overcast,20,2013-04-08 03:51:00